Time;durP1;ratioP1;P1;durP2;ratioP2;P2;SDS_P1;SDS_P2;PMS_P1;PMS_P2;Temp;Humidity;BMP_temperature;BMP_pressure;BME280_temperature;BME280_humidity;BME280_pressure;Samples;Min_cycle;Max_cycle;Signal;HPM_P1;HPM_P2
2023/03/05 00:02:10;;;;;;;3.83;1.73;;;;;;;-1.47;79.90;96421.53;7351227;19;20023;-71
2023/03/05 00:04:35;;;;;;;4.97;1.73;;;;;;;-1.67;79.72;96414.31;7349752;19;20457;-69
2023/03/05 00:07:00;;;;;;;3.38;2.00;;;;;;;-1.74;79.93;96410.50;7346818;19;20022;-70
2023/03/05 00:09:24;;;;;;;3.08;1.05;;;;;;;-1.64;80.06;96408.88;7346595;19;20022;-66
2023/03/05 00:11:49;;;;;;;3.28;1.33;;;;;;;-1.70;79.81;96409.34;7347741;19;20021;-70
2023/03/05 00:14:14;;;;;;;3.53;1.92;;;;;;;-1.59;79.93;96409.38;7347572;19;20413;-69
2023/03/05 00:16:39;;;;;;;3.83;2.00;;;;;;;-1.76;79.90;96404.56;7343830;19;20007;-69
2023/03/05 00:19:04;;;;;;;1.17;1.08;;;;;;;-1.70;80.14;96414.56;7347766;19;20337;-69
2023/03/05 00:21:35;;;;;;;3.28;1.60;;;;;;;-1.78;80.18;96403.84;7346964;19;20438;-68
2023/03/05 00:24:01;;;;;;;3.65;1.40;;;;;;;-1.75;80.41;96419.28;7347252;19;20440;-76
2023/03/05 00:26:26;;;;;;;4.10;1.95;;;;;;;-1.89;80.46;96404.63;7345693;19;20006;-73
2023/03/05 00:28:51;;;;;;;2.20;1.42;;;;;;;-1.95;80.67;96418.16;7343888;19;20014;-72
2023/03/05 00:31:28;;;;;;;4.88;1.63;;;;;;;-1.96;80.61;96414.69;7346725;19;20051;-69
2023/03/05 00:33:55;;;;;;;1.38;1.17;;;;;;;-1.93;80.89;96409.25;7345455;19;20015;-68
2023/03/05 00:36:21;;;;;;;1.88;1.50;;;;;;;-1.95;80.61;96415.53;7343421;19;20014;-69
2023/03/05 00:38:46;;;;;;;3.85;2.08;;;;;;;-1.96;80.84;96404.25;7346275;19;20482;-68
2023/03/05 00:41:11;;;;;;;3.20;1.48;;;;;;;-1.81;80.70;96412.75;7343128;19;20461;-69
2023/03/05 00:43:35;;;;;;;1.88;1.63;;;;;;;-1.86;80.61;96410.47;7344524;19;20074;-66
2023/03/05 00:46:00;;;;;;;2.58;2.38;;;;;;;-1.77;80.47;96405.50;7343901;19;20454;-65
2023/03/05 00:48:25;;;;;;;2.08;1.42;;;;;;;-1.88;80.37;96407.13;7346385;19;20414;-68
2023/03/05 00:50:50;;;;;;;2.90;1.67;;;;;;;-1.97;80.05;96405.19;7343879;19;20453;-66
2023/03/05 00:53:15;;;;;;;1.80;1.48;;;;;;;-1.91;80.10;96404.75;7344865;19;20011;-65
2023/03/05 00:55:39;;;;;;;3.25;1.70;;;;;;;-1.98;80.21;96408.75;7343551;19;20029;-67
2023/03/05 00:58:04;;;;;;;2.17;1.30;;;;;;;-1.92;79.97;96403.06;7343097;19;20015;-65
2023/03/05 01:00:29;;;;;;;3.03;1.83;;;;;;;-1.99;79.95;96403.63;7344983;19;20477;-67
2023/03/05 01:02:53;;;;;;;1.27;1.15;;;;;;;-2.14;79.88;96402.16;7355853;19;20533;-67
2023/03/05 01:05:18;;;;;;;4.05;2.00;;;;;;;-2.13;80.07;96406.41;7348166;19;20010;-71
2023/03/05 01:07:42;;;;;;;1.60;1.30;;;;;;;-2.16;80.39;96415.31;7343518;19;20344;-71
2023/03/05 01:10:08;;;;;;;4.53;1.33;;;;;;;-2.19;80.49;96399.88;7347228;19;20014;-70
2023/03/05 01:12:33;;;;;;;6.18;1.55;;;;;;;-2.14;80.44;96408.19;7342100;19;20499;-70
2023/03/05 01:14:58;;;;;;;1.90;1.13;;;;;;;-2.20;80.42;96414.69;7346507;19;20021;-74
2023/03/05 01:17:22;;;;;;;2.95;1.80;;;;;;;-2.27;80.54;96410.03;7342950;19;20018;-67
2023/03/05 01:19:47;;;;;;;4.30;1.17;;;;;;;-2.20;80.66;96412.09;7344092;19;20449;-66
2023/03/05 01:22:12;;;;;;;2.78;1.52;;;;;;;-2.21;80.31;96414.81;7342669;19;20458;-66
2023/03/05 01:24:36;;;;;;;1.95;1.58;;;;;;;-2.20;80.22;96403.44;7343408;19;20345;-65
2023/03/05 01:27:01;;;;;;;1.27;1.17;;;;;;;-2.23;80.08;96411.47;7341707;19;20473;-66
2023/03/05 01:29:27;;;;;;;1.52;1.42;;;;;;;-2.20;80.16;96416.47;7348100;19;20036;-66
2023/03/05 01:31:51;;;;;;;1.98;1.13;;;;;;;-2.24;80.03;96405.41;7348829;19;20055;-67
2023/03/05 01:34:17;;;;;;;1.40;1.30;;;;;;;-2.36;79.88;96402.84;7353362;19;20026;-66
2023/03/05 01:36:42;;;;;;;2.92;1.40;;;;;;;-2.41;80.03;96407.56;7352995;19;20018;-66
2023/03/05 01:39:06;;;;;;;2.38;1.05;;;;;;;-2.48;80.18;96409.78;7352675;19;20042;-66
2023/03/05 01:41:32;;;;;;;1.30;0.90;;;;;;;-2.51;80.15;96403.97;7347271;19;20015;-67
2023/03/05 01:43:57;;;;;;;2.75;1.13;;;;;;;-2.51;80.05;96406.56;7343113;19;20022;-67
2023/03/05 01:46:36;;;;;;;1.13;0.77;;;;;;;-2.58;80.29;96401.78;7346202;19;20014;-67
2023/03/05 01:49:00;;;;;;;2.10;1.55;;;;;;;-2.71;80.33;96405.38;7348669;19;20022;-70
2023/03/05 01:51:28;;;;;;;3.72;1.20;;;;;;;-2.67;80.34;96407.63;7351663;19;20022;-69
2023/03/05 01:53:56;;;;;;;1.65;1.30;;;;;;;-2.67;80.38;96399.81;7349827;19;20015;-69
2023/03/05 01:56:20;;;;;;;1.33;1.20;;;;;;;-2.71;80.51;96421.81;7350821;19;20026;-67
2023/03/05 01:58:45;;;;;;;2.63;1.73;;;;;;;-2.84;80.52;96412.38;7353705;19;20014;-71
2023/03/05 02:01:10;;;;;;;2.00;1.80;;;;;;;-2.83;80.63;96395.81;7353692;19;20025;-66
2023/03/05 02:03:36;;;;;;;2.58;1.33;;;;;;;-2.83;80.66;96412.28;7353943;19;20377;-69
2023/03/05 02:06:01;;;;;;;1.50;0.88;;;;;;;-2.78;80.76;96391.91;7351564;19;20045;-72
2023/03/05 02:08:25;;;;;;;2.15;1.13;;;;;;;-2.77;80.80;96413.59;7351364;19;20078;-72
2023/03/05 02:10:54;;;;;;;6.32;1.85;;;;;;;-2.83;81.06;96411.44;7348608;19;20039;-78
2023/03/05 02:13:24;;;;;;;4.63;1.70;;;;;;;-2.78;81.09;96404.94;7349002;19;20496;-71
2023/03/05 02:15:51;;;;;;;6.45;1.95;;;;;;;-2.82;81.01;96413.91;7350863;19;20058;-71
2023/03/05 02:18:18;;;;;;;2.13;1.27;;;;;;;-2.74;80.92;96396.00;7352239;19;20034;-71
2023/03/05 02:20:52;;;;;;;1.42;1.33;;;;;;;-2.68;80.73;96395.53;7349550;19;20031;-71
2023/03/05 02:23:19;;;;;;;1.35;1.25;;;;;;;-2.73;80.61;96399.44;7348696;19;20037;-71
2023/03/05 02:25:44;;;;;;;4.63;1.98;;;;;;;-2.78;80.73;96407.56;7350313;19;20106;-71
2023/03/05 02:28:15;;;;;;;3.38;2.38;;;;;;;-2.64;80.58;96404.00;7352165;19;20042;-71
2023/03/05 02:30:40;;;;;;;2.30;1.48;;;;;;;-2.65;80.52;96400.56;7349955;19;20014;-71
2023/03/05 02:33:05;;;;;;;1.35;1.15;;;;;;;-2.55;80.42;96403.34;7349945;19;20026;-72
2023/03/05 02:35:30;;;;;;;1.48;0.80;;;;;;;-2.58;80.26;96393.94;7348189;19;20488;-74
2023/03/05 02:37:58;;;;;;;1.95;1.13;;;;;;;-2.63;80.33;96401.28;7347988;19;20349;-71
2023/03/05 02:40:23;;;;;;;3.28;1.50;;;;;;;-2.61;80.37;96391.59;7346269;19;20033;-70
2023/03/05 02:42:48;;;;;;;2.58;1.73;;;;;;;-2.74;80.43;96395.16;7348275;19;20073;-67
2023/03/05 02:45:13;;;;;;;2.70;1.65;;;;;;;-2.70;80.43;96396.59;7347291;19;20078;-70
2023/03/05 02:47:38;;;;;;;2.03;1.60;;;;;;;-2.66;80.72;96398.88;7349426;19;20037;-69
2023/03/05 02:50:06;;;;;;;6.65;1.85;;;;;;;-2.66;80.67;96392.84;7351583;19;20025;-70
2023/03/05 02:52:30;;;;;;;5.47;1.92;;;;;;;-2.74;80.68;96395.16;7350033;19;20018;-70
2023/03/05 02:54:55;;;;;;;5.60;2.25;;;;;;;-2.72;80.88;96393.28;7348254;19;20018;-68
2023/03/05 02:57:21;;;;;;;2.58;1.40;;;;;;;-2.67;80.85;96402.44;7348993;19;20496;-68
2023/03/05 02:59:46;;;;;;;4.80;1.75;;;;;;;-2.76;81.02;96395.25;7348895;19;20489;-69
2023/03/05 03:02:11;;;;;;;2.70;1.67;;;;;;;-2.74;81.12;96389.94;7348868;19;20033;-72
2023/03/05 03:04:36;;;;;;;5.75;2.78;;;;;;;-2.86;81.35;96386.41;7347824;19;20498;-69
2023/03/05 03:07:01;;;;;;;2.75;1.33;;;;;;;-2.75;81.49;96386.50;7352472;19;20445;-72
2023/03/05 03:09:26;;;;;;;3.40;2.25;;;;;;;-2.86;81.96;96383.81;7353549;19;20031;-75
2023/03/05 03:11:50;;;;;;;1.92;1.75;;;;;;;-2.92;82.05;96382.44;7355174;19;20015;-73
2023/03/05 03:14:15;;;;;;;3.80;2.15;;;;;;;-2.93;82.43;96383.38;7353426;19;20454;-73
2023/03/05 03:16:39;;;;;;;2.90;1.52;;;;;;;-2.80;82.37;96383.38;7352084;19;20026;-73
2023/03/05 03:19:04;;;;;;;2.65;1.45;;;;;;;-2.80;82.71;96375.56;7346503;19;20030;-65
2023/03/05 03:21:29;;;;;;;2.65;1.83;;;;;;;-2.73;82.90;96383.78;7348563;19;20006;-73
2023/03/05 03:23:54;;;;;;;3.00;1.70;;;;;;;-2.68;82.79;96374.69;7345534;19;20085;-72
2023/03/05 03:26:18;;;;;;;4.20;1.95;;;;;;;-2.69;82.86;96378.22;7347544;19;20015;-71
2023/03/05 03:28:44;;;;;;;2.63;1.58;;;;;;;-2.70;83.18;96373.97;7345663;19;20798;-72
2023/03/05 03:31:08;;;;;;;2.90;1.00;;;;;;;-2.62;83.02;96389.91;7348602;19;20066;-70
2023/03/05 03:33:33;;;;;;;6.60;1.83;;;;;;;-2.64;83.33;96375.31;7343455;19;20047;-72
2023/03/05 03:35:58;;;;;;;3.33;1.88;;;;;;;-2.64;83.45;96381.34;7346510;19;20026;-71
2023/03/05 03:38:22;;;;;;;2.58;1.98;;;;;;;-2.57;83.26;96379.13;7346461;19;20010;-71
2023/03/05 03:40:47;;;;;;;3.78;1.40;;;;;;;-2.48;83.35;96385.50;7345881;19;20021;-72
2023/03/05 03:43:11;;;;;;;3.03;1.80;;;;;;;-2.58;83.32;96380.06;7346091;19;20034;-72
2023/03/05 03:45:40;;;;;;;3.83;1.92;;;;;;;-2.61;83.42;96381.16;7346196;19;20018;-71
2023/03/05 03:48:04;;;;;;;4.32;1.80;;;;;;;-2.61;83.51;96378.53;7346114;19;20029;-73
2023/03/05 03:50:29;;;;;;;2.58;1.50;;;;;;;-2.68;83.90;96381.66;7346662;19;20011;-70
2023/03/05 03:52:54;;;;;;;3.63;2.22;;;;;;;-2.70;84.17;96387.00;7343704;19;20019;-70
2023/03/05 03:55:18;;;;;;;1.50;1.10;;;;;;;-2.70;84.41;96379.16;7346829;19;20031;-66
2023/03/05 03:57:43;;;;;;;3.40;1.63;;;;;;;-2.71;84.48;96372.28;7347308;19;20391;-66
2023/03/05 04:00:10;;;;;;;3.85;1.85;;;;;;;-2.62;84.24;96369.06;7346483;19;20025;-67
2023/03/05 04:02:37;;;;;;;3.05;1.50;;;;;;;-2.72;84.63;96377.63;7344964;19;20028;-66
2023/03/05 04:05:03;;;;;;;4.05;1.35;;;;;;;-2.71;84.79;96367.06;7346619;19;20026;-67
2023/03/05 04:07:28;;;;;;;4.88;1.83;;;;;;;-2.73;84.96;96378.56;7345168;19;20032;-67
2023/03/05 04:09:53;;;;;;;2.25;1.60;;;;;;;-2.69;84.62;96377.41;7346863;19;20014;-68
2023/03/05 04:12:17;;;;;;;5.68;1.70;;;;;;;-2.86;84.94;96381.22;7344144;19;20449;-70
2023/03/05 04:14:46;;;;;;;3.40;0.98;;;;;;;-2.86;85.24;96386.41;7349473;19;20011;-70
2023/03/05 04:17:11;;;;;;;2.40;1.83;;;;;;;-2.83;85.33;96374.94;7343855;19;20025;-70
2023/03/05 04:19:36;;;;;;;3.50;1.27;;;;;;;-2.84;85.43;96379.34;7345681;19;20007;-70
2023/03/05 04:22:00;;;;;;;2.88;1.67;;;;;;;-2.85;85.28;96369.84;7343168;19;20011;-70
2023/03/05 04:24:25;;;;;;;4.75;2.33;;;;;;;-2.78;85.26;96375.44;7345037;19;20015;-72
2023/03/05 04:26:50;;;;;;;5.53;2.97;;;;;;;-2.80;85.29;96378.16;7343415;19;20699;-67
2023/03/05 04:29:14;;;;;;;4.95;1.60;;;;;;;-2.71;85.27;96376.69;7343935;19;20010;-67
2023/03/05 04:31:39;;;;;;;2.13;1.25;;;;;;;-2.60;85.13;96377.59;7342365;19;20006;-68
2023/03/05 04:34:04;;;;;;;1.73;1.15;;;;;;;-2.56;85.11;96381.63;7343672;19;20014;-67
2023/03/05 04:36:28;;;;;;;1.23;1.08;;;;;;;-2.62;85.07;96378.66;7342639;19;20018;-67
2023/03/05 04:38:53;;;;;;;3.42;1.60;;;;;;;-2.60;85.13;96375.00;7345305;19;20014;-67
2023/03/05 04:41:17;;;;;;;3.10;1.98;;;;;;;-2.57;85.04;96377.38;7343950;19;20334;-67
2023/03/05 04:43:42;;;;;;;1.48;1.15;;;;;;;-2.46;84.88;96380.97;7343405;19;20010;-67
2023/03/05 04:46:07;;;;;;;1.38;1.13;;;;;;;-2.45;84.63;96380.03;7341983;19;20014;-67
2023/03/05 04:48:31;;;;;;;3.55;1.95;;;;;;;-2.43;84.82;96383.38;7343806;19;20807;-67
2023/03/05 04:50:56;;;;;;;4.05;1.35;;;;;;;-2.45;84.30;96382.66;7343410;19;20019;-66
2023/03/05 04:53:21;;;;;;;1.35;1.08;;;;;;;-2.34;84.12;96378.31;7341517;19;20019;-67
2023/03/05 04:55:51;;;;;;;1.90;1.23;;;;;;;-2.37;83.64;96375.13;7342603;19;20015;-67
2023/03/05 04:58:16;;;;;;;2.15;1.08;;;;;;;-2.32;83.12;96379.06;7342803;19;20022;-67
2023/03/05 05:00:41;;;;;;;1.80;1.13;;;;;;;-2.41;82.64;96391.94;7341336;19;20011;-71
2023/03/05 05:03:05;;;;;;;2.10;1.48;;;;;;;-2.44;82.49;96382.53;7342291;19;20026;-70
2023/03/05 05:05:30;;;;;;;4.32;2.40;;;;;;;-2.43;82.26;96384.22;7340699;19;20025;-69
2023/03/05 05:07:56;;;;;;;1.38;1.20;;;;;;;-2.31;82.32;96390.31;7342269;19;20029;-72
2023/03/05 05:10:22;;;;;;;3.40;1.55;;;;;;;-2.30;81.81;96386.78;7342095;19;20018;-71
2023/03/05 05:12:46;;;;;;;7.07;2.05;;;;;;;-2.42;81.52;96400.69;7340329;19;20015;-72
2023/03/05 05:15:11;;;;;;;3.65;1.80;;;;;;;-2.36;81.90;96380.22;7341082;19;20011;-69
2023/03/05 05:17:36;;;;;;;3.08;1.25;;;;;;;-2.29;81.82;96381.44;7343465;19;20025;-68
2023/03/05 05:20:03;;;;;;;1.92;1.70;;;;;;;-2.27;81.72;96410.03;7348615;19;20015;-71
2023/03/05 05:22:28;;;;;;;5.45;1.90;;;;;;;-2.31;81.68;96388.53;7355038;19;20034;-71
2023/03/05 05:24:53;;;;;;;2.50;1.40;;;;;;;-2.17;81.75;96391.94;7342210;19;20493;-70
2023/03/05 05:27:18;;;;;;;6.47;1.83;;;;;;;-2.17;81.87;96411.03;7342091;19;20010;-70
2023/03/05 05:29:45;;;;;;;5.72;1.30;;;;;;;-2.06;82.14;96394.59;7344608;19;20049;-73
2023/03/05 05:32:09;;;;;;;3.20;0.98;;;;;;;-2.02;82.25;96396.03;7341268;19;20078;-71
2023/03/05 05:34:34;;;;;;;3.28;1.52;;;;;;;-2.04;82.65;96400.56;7344470;19;20031;-69
2023/03/05 05:36:58;;;;;;;2.17;1.55;;;;;;;-2.11;83.24;96410.59;7341059;19;20112;-70
2023/03/05 05:39:23;;;;;;;1.25;1.13;;;;;;;-2.02;83.80;96396.84;7343943;19;20374;-70
2023/03/05 05:41:52;;;;;;;2.15;1.27;;;;;;;-1.78;83.32;96406.44;7342636;19;20021;-69
2023/03/05 05:44:17;;;;;;;2.67;1.25;;;;;;;-1.86;82.96;96413.06;7342488;19;20026;-68
2023/03/05 05:46:41;;;;;;;2.88;1.52;;;;;;;-1.96;83.26;96409.47;7341305;19;20019;-69
2023/03/05 05:49:06;;;;;;;2.08;1.52;;;;;;;-1.97;83.95;96410.41;7342351;19;20046;-68
2023/03/05 05:51:31;;;;;;;1.42;1.33;;;;;;;-1.84;84.21;96395.53;7343307;19;20010;-68
2023/03/05 05:53:55;;;;;;;1.35;1.17;;;;;;;-1.84;83.97;96408.59;7340333;19;20019;-68
2023/03/05 05:56:20;;;;;;;1.83;1.00;;;;;;;-1.78;84.45;96411.66;7342147;19;20018;-71
2023/03/05 05:58:47;;;;;;;4.60;1.83;;;;;;;-1.74;84.68;96410.50;7343595;19;20014;-68
2023/03/05 06:01:24;;;;;;;2.67;1.00;;;;;;;-1.71;84.78;96412.91;7340538;19;20022;-68
2023/03/05 06:03:49;;;;;;;2.53;1.20;;;;;;;-1.66;84.53;96421.22;7339313;19;20057;-67
2023/03/05 06:06:16;;;;;;;3.28;1.65;;;;;;;-1.92;84.64;96416.13;7340791;19;20032;-68
2023/03/05 06:08:41;;;;;;;2.15;1.45;;;;;;;-2.02;84.55;96415.13;7338630;19;20030;-69
2023/03/05 06:11:06;;;;;;;1.83;1.40;;;;;;;-1.99;84.57;96420.13;7339509;19;20011;-67
2023/03/05 06:13:31;;;;;;;2.30;0.85;;;;;;;-1.98;84.49;96405.31;7337166;19;20025;-69
2023/03/05 06:15:57;;;;;;;3.15;1.33;;;;;;;-1.83;84.30;96425.91;7344433;19;20070;-67
2023/03/05 06:18:22;;;;;;;4.85;1.75;;;;;;;-1.91;84.79;96419.56;7349157;19;20464;-69
2023/03/05 06:20:53;;;;;;;1.70;1.38;;;;;;;-1.87;84.50;96427.06;7347560;19;20469;-68
2023/03/05 06:23:18;;;;;;;3.28;1.77;;;;;;;-1.86;84.34;96425.28;7346115;19;20033;-69
2023/03/05 06:25:42;;;;;;;3.72;2.05;;;;;;;-2.00;84.88;96415.84;7349873;19;20078;-67
2023/03/05 06:28:07;;;;;;;5.30;2.05;;;;;;;-1.96;84.75;96424.31;7351173;19;20015;-69
2023/03/05 06:30:31;;;;;;;2.50;1.42;;;;;;;-1.85;84.70;96419.13;7347408;19;20010;-68
2023/03/05 06:32:56;;;;;;;2.35;1.70;;;;;;;-1.66;84.65;96431.66;7347124;19;20022;-68
2023/03/05 06:35:21;;;;;;;2.40;1.67;;;;;;;-1.69;84.26;96430.09;7348447;19;20011;-69
2023/03/05 06:37:45;;;;;;;3.30;2.17;;;;;;;-1.67;84.22;96430.00;7352979;19;20441;-69
2023/03/05 06:40:11;;;;;;;3.72;1.40;;;;;;;-1.61;84.30;96432.16;7351208;19;20022;-68
2023/03/05 06:42:37;;;;;;;2.25;1.67;;;;;;;-1.54;84.39;96428.13;7349749;19;20014;-69
2023/03/05 06:45:02;;;;;;;2.55;1.90;;;;;;;-1.50;83.89;96437.44;7348917;19;20025;-71
2023/03/05 06:47:28;;;;;;;3.05;1.88;;;;;;;-1.53;83.72;96438.47;7350155;19;20369;-70
2023/03/05 06:49:53;;;;;;;4.05;1.55;;;;;;;-1.47;83.55;96437.22;7346831;19;20063;-70
2023/03/05 06:52:18;;;;;;;3.00;2.25;;;;;;;-1.33;83.44;96444.00;7346965;19;20018;-71
2023/03/05 06:54:42;;;;;;;3.53;2.28;;;;;;;-1.28;82.81;96444.50;7346369;19;20022;-71
2023/03/05 06:57:09;;;;;;;2.65;1.92;;;;;;;-1.19;82.55;96446.41;7348223;19;20018;-70
2023/03/05 06:59:33;;;;;;;1.98;1.48;;;;;;;-1.14;82.30;96449.53;7347730;19;20094;-71
2023/03/05 07:01:58;;;;;;;3.00;1.65;;;;;;;-1.16;81.54;96441.78;7348259;19;20014;-71
2023/03/05 07:04:23;;;;;;;3.95;1.92;;;;;;;-1.20;81.65;96456.03;7347694;19;20019;-73
2023/03/05 07:06:47;;;;;;;5.80;2.83;;;;;;;-1.27;81.65;96448.78;7349744;19;20027;-70
2023/03/05 07:09:14;;;;;;;3.17;2.05;;;;;;;-1.14;82.11;96459.97;7349534;19;20066;-71
2023/03/05 07:11:39;;;;;;;3.72;2.08;;;;;;;-1.12;81.53;96466.72;7347456;19;20330;-69
2023/03/05 07:14:04;;;;;;;6.03;3.53;;;;;;;-1.19;81.27;96465.53;7347361;19;20006;-69
2023/03/05 07:16:31;;;;;;;3.35;2.47;;;;;;;-1.06;81.34;96473.28;7347959;19;20348;-69
2023/03/05 07:18:58;;;;;;;3.80;2.42;;;;;;;-1.02;81.22;96463.44;7348486;19;20077;-70
2023/03/05 07:21:29;;;;;;;3.50;2.55;;;;;;;-0.90;81.25;96476.38;7349385;19;20014;-70
2023/03/05 07:23:56;;;;;;;2.53;1.88;;;;;;;-0.85;81.16;96479.50;7349423;19;20074;-71
2023/03/05 07:26:21;;;;;;;3.45;2.58;;;;;;;-0.98;80.59;96473.53;7348143;19;20014;-70
2023/03/05 07:28:46;;;;;;;3.60;2.85;;;;;;;-0.99;80.59;96478.88;7354271;19;20022;-69
2023/03/05 07:31:20;;;;;;;4.30;2.30;;;;;;;-0.92;81.07;96487.94;7356524;19;20007;-73
2023/03/05 07:33:48;;;;;;;5.72;2.53;;;;;;;-0.90;81.00;96486.00;7345440;19;20015;-68
2023/03/05 07:36:13;;;;;;;3.35;2.10;;;;;;;-0.83;81.00;96495.06;7344144;19;20018;-69
2023/03/05 07:38:39;;;;;;;3.33;2.22;;;;;;;-0.81;80.67;96495.78;7348762;19;20022;-71
2023/03/05 07:41:10;;;;;;;2.83;2.08;;;;;;;-0.78;80.66;96500.78;7346483;19;20023;-70
2023/03/05 07:43:36;;;;;;;2.47;2.15;;;;;;;-0.76;80.78;96504.09;7347375;19;20024;-71
2023/03/05 07:46:06;;;;;;;2.63;2.35;;;;;;;-0.84;80.48;96503.88;7343957;19;20082;-69
2023/03/05 07:48:31;;;;;;;3.17;2.58;;;;;;;-0.86;80.21;96505.75;7346968;19;20022;-74
2023/03/05 07:51:01;;;;;;;3.95;2.40;;;;;;;-0.77;80.35;96515.50;7346070;19;20010;-74
2023/03/05 07:53:25;;;;;;;3.90;2.00;;;;;;;-0.74;80.23;96521.34;7344677;19;20374;-75
2023/03/05 07:55:50;;;;;;;3.10;2.38;;;;;;;-0.64;80.36;96526.72;7344085;19;20401;-74
2023/03/05 07:58:15;;;;;;;5.00;2.67;;;;;;;-0.58;80.26;96526.25;7345272;19;20022;-69
2023/03/05 08:00:40;;;;;;;5.88;2.60;;;;;;;-0.57;79.82;96524.47;7345378;19;20047;-69
2023/03/05 08:03:05;;;;;;;5.45;2.80;;;;;;;-0.58;79.31;96530.66;7344534;19;20014;-69
2023/03/05 08:05:30;;;;;;;4.45;2.13;;;;;;;-0.63;79.03;96538.00;7343667;19;20018;-70
2023/03/05 08:07:55;;;;;;;3.80;2.58;;;;;;;-0.55;78.88;96540.88;7348079;19;20034;-71
2023/03/05 08:10:20;;;;;;;5.03;3.58;;;;;;;-0.57;78.48;96542.78;7344976;19;20461;-71
2023/03/05 08:12:44;;;;;;;4.18;2.78;;;;;;;-0.49;78.55;96551.72;7345991;19;20014;-77
2023/03/05 08:15:10;;;;;;;5.10;2.72;;;;;;;-0.45;78.07;96547.91;7345226;19;20488;-77
2023/03/05 08:17:34;;;;;;;4.40;2.85;;;;;;;-0.40;78.18;96553.63;7346959;19;20342;-74
2023/03/05 08:20:04;;;;;;;7.13;3.28;;;;;;;-0.30;77.62;96558.16;7345429;19;20014;-70
2023/03/05 08:22:29;;;;;;;5.72;3.90;;;;;;;-0.48;77.24;96560.41;7346141;19;20019;-73
2023/03/05 08:24:53;;;;;;;3.60;2.97;;;;;;;-0.35;77.71;96560.31;7344906;19;20492;-75
2023/03/05 08:27:18;;;;;;;6.05;3.13;;;;;;;-0.24;77.96;96570.78;7346337;19;20026;-75
2023/03/05 08:29:43;;;;;;;3.35;2.80;;;;;;;-0.14;77.86;96566.50;7344743;19;20027;-75
2023/03/05 08:32:07;;;;;;;5.45;3.08;;;;;;;-0.14;77.05;96569.09;7342003;19;20015;-77
2023/03/05 08:34:32;;;;;;;6.57;3.95;;;;;;;-0.05;77.30;96571.84;7343079;19;20824;-74
2023/03/05 08:36:57;;;;;;;4.78;3.60;;;;;;;-0.06;76.98;96592.91;7345494;19;20007;-70
2023/03/05 08:39:21;;;;;;;10.05;4.68;;;;;;;-0.30;77.17;96598.25;7343695;19;20033;-71
2023/03/05 08:41:46;;;;;;;6.80;4.13;;;;;;;-0.24;77.29;96587.31;7343395;19;20093;-72
2023/03/05 08:44:11;;;;;;;5.80;3.70;;;;;;;-0.19;77.38;96592.19;7345120;19;20337;-70
2023/03/05 08:46:38;;;;;;;6.82;4.05;;;;;;;-0.10;77.17;96599.31;7345214;19;20066;-71
2023/03/05 08:49:03;;;;;;;6.40;4.28;;;;;;;-0.03;77.03;96600.53;7345250;19;20019;-75
2023/03/05 08:51:28;;;;;;;5.95;4.32;;;;;;;0.05;76.98;96598.13;7345455;19;20033;-79
2023/03/05 08:53:55;;;;;;;7.63;4.28;;;;;;;0.09;76.47;96606.59;7344895;19;20601;-80
2023/03/05 08:56:20;;;;;;;7.97;5.63;;;;;;;0.01;76.13;96609.78;7347541;19;20014;-79
2023/03/05 08:58:46;;;;;;;8.90;5.18;;;;;;;-0.11;75.98;96610.75;7348752;19;19999;-79
2023/03/05 09:01:12;;;;;;;5.40;4.25;;;;;;;-0.03;76.50;96619.69;7348407;19;20445;-79
2023/03/05 09:03:40;;;;;;;7.95;4.80;;;;;;;-0.08;76.05;96613.97;7348845;19;20014;-80
2023/03/05 09:06:08;;;;;;;7.50;4.40;;;;;;;-0.10;76.22;96628.13;7351227;19;20014;-81
2023/03/05 09:08:34;;;;;;;7.43;4.50;;;;;;;-0.11;76.25;96622.06;7346806;19;20022;-77
2023/03/05 09:11:01;;;;;;;7.63;4.95;;;;;;;-0.04;76.46;96632.91;7345356;19;20006;-77
2023/03/05 09:13:26;;;;;;;6.32;4.47;;;;;;;0.02;76.37;96629.78;7347393;19;20007;-78
2023/03/05 09:16:00;;;;;;;9.23;5.55;;;;;;;0.05;76.23;96636.59;7345155;19;20017;-77
2023/03/05 09:18:25;;;;;;;6.45;5.05;;;;;;;0.07;76.17;96635.53;7347535;19;20092;-77
2023/03/05 09:20:50;;;;;;;7.28;5.40;;;;;;;-0.11;75.84;96650.00;7347944;19;20848;-78
2023/03/05 09:23:15;;;;;;;11.55;5.57;;;;;;;-0.10;76.00;96651.69;7350342;19;20086;-78
2023/03/05 09:25:40;;;;;;;12.60;5.72;;;;;;;-0.07;76.07;96656.69;7346853;19;20010;-73
2023/03/05 09:28:06;;;;;;;12.93;6.57;;;;;;;-0.10;75.94;96664.78;7345898;19;20011;-78
2023/03/05 09:30:33;;;;;;;8.10;5.53;;;;;;;-0.10;75.94;96659.53;7345002;19;20477;-78
2023/03/05 09:32:59;;;;;;;11.80;6.00;;;;;;;-0.12;75.94;96661.47;7343991;19;20019;-77
2023/03/05 09:35:24;;;;;;;6.38;4.90;;;;;;;-0.16;76.06;96670.50;7344186;19;20010;-78
2023/03/05 09:37:51;;;;;;;9.40;5.57;;;;;;;-0.19;75.80;96666.31;7346579;19;20025;-79
2023/03/05 09:40:18;;;;;;;8.63;5.40;;;;;;;-0.21;75.68;96665.59;7347315;19;20046;-79
2023/03/05 09:42:58;;;;;;;6.53;4.60;;;;;;;-0.14;75.45;96673.84;7347224;19;20018;-79
2023/03/05 09:45:31;;;;;;;6.65;4.50;;;;;;;-0.14;75.71;96685.13;7346020;19;20406;-80
2023/03/05 09:48:15;;;;;;;7.50;4.70;;;;;;;-0.12;75.41;96685.03;7346689;19;20014;-80
2023/03/05 09:50:47;;;;;;;9.60;5.60;;;;;;;-0.17;75.62;96687.97;7353072;19;20010;-79
2023/03/05 09:53:40;;;;;;;10.70;5.35;;;;;;;-0.13;76.17;96693.84;7360434;19;20013;-79
2023/03/05 09:56:25;;;;;;;7.82;4.57;;;;;;;-0.02;76.43;96696.47;7358418;19;20073;-77
2023/03/05 09:58:57;;;;;;;10.85;5.60;;;;;;;-0.01;76.05;96709.44;7358810;19;20051;-77
2023/03/05 10:01:34;;;;;;;6.88;4.75;;;;;;;-0.10;76.00;96704.88;7359161;19;20020;-78
2023/03/05 10:04:39;;;;;;;13.82;6.40;;;;;;;-0.16;76.06;96715.00;7358172;19;20010;-77
2023/03/05 10:07:14;;;;;;;5.07;4.30;;;;;;;-0.13;76.29;96718.22;7359457;19;20058;-77
2023/03/05 10:10:09;;;;;;;10.65;5.60;;;;;;;-0.09;76.41;96727.50;7358561;19;20069;-76
2023/03/05 10:12:42;;;;;;;9.98;5.13;;;;;;;-0.08;76.17;96723.94;7353092;19;20475;-77
2023/03/05 10:15:13;;;;;;;9.50;5.72;;;;;;;-0.17;75.77;96739.50;7351790;19;20047;-76
2023/03/05 10:18:08;;;;;;;9.40;5.28;;;;;;;-0.13;75.68;96730.50;7351151;19;20478;-77
2023/03/05 10:21:00;;;;;;;7.38;4.90;;;;;;;-0.22;75.50;96745.06;7359979;19;20015;-79
2023/03/05 10:23:30;;;;;;;7.72;5.10;;;;;;;-0.39;75.77;96746.34;7360867;19;20026;-76
2023/03/05 10:26:02;;;;;;;7.82;4.82;;;;;;;-0.42;76.07;96750.97;7363121;19;20007;-77
2023/03/05 10:28:42;;;;;;;7.00;4.80;;;;;;;-0.46;76.17;96757.38;7366369;19;20022;-76
2023/03/05 10:31:18;;;;;;;8.30;4.90;;;;;;;-0.46;76.38;96771.31;7361253;19;20022;-75
2023/03/05 10:33:56;;;;;;;10.57;5.72;;;;;;;-0.55;76.39;96763.25;7348873;19;20020;-74
2023/03/05 10:36:44;;;;;;;11.02;7.32;;;;;;;-0.50;76.30;96779.47;7351612;19;20015;-75
2023/03/05 10:39:34;;;;;;;11.40;5.70;;;;;;;-0.50;76.13;96782.94;7354522;19;20003;-77
2023/03/05 10:42:05;;;;;;;8.35;5.13;;;;;;;-0.38;76.27;96784.66;7351876;19;20015;-75
2023/03/05 10:44:51;;;;;;;11.60;6.32;;;;;;;-0.34;75.71;96781.81;7351300;19;20029;-74
2023/03/05 10:47:47;;;;;;;8.27;5.28;;;;;;;-0.29;75.45;96792.78;7350442;19;20010;-74
2023/03/05 10:50:23;;;;;;;12.10;6.05;;;;;;;-0.41;75.47;96782.25;7350380;19;20029;-74
2023/03/05 10:53:04;;;;;;;9.05;5.95;;;;;;;-0.37;75.54;96806.44;7350446;19;20017;-76
2023/03/05 10:55:29;;;;;;;21.77;8.13;;;;;;;-0.39;75.15;96808.31;7352562;19;20045;-77
2023/03/05 10:57:54;;;;;;;6.03;4.72;;;;;;;-0.35;75.19;96801.09;7357456;19;20019;-78
2023/03/05 11:00:27;;;;;;;8.70;6.28;;;;;;;-0.27;75.49;96812.66;7358241;19;20456;-77
2023/03/05 11:03:10;;;;;;;9.90;6.43;;;;;;;-0.27;75.52;96819.66;7352838;19;20006;-77
2023/03/05 11:05:41;;;;;;;7.75;5.70;;;;;;;-0.36;75.69;96823.81;7350896;19;20031;-77
2023/03/05 11:08:21;;;;;;;9.55;6.63;;;;;;;-0.26;75.45;96827.41;7352705;19;20010;-75
2023/03/05 11:10:46;;;;;;;7.75;5.65;;;;;;;-0.32;75.41;96835.69;7350116;19;20466;-76
2023/03/05 11:13:26;;;;;;;9.25;5.70;;;;;;;-0.32;75.47;96832.25;7347832;19;20388;-74
2023/03/05 11:16:03;;;;;;;10.93;5.47;;;;;;;-0.18;75.44;96839.94;7349791;19;20023;-77
2023/03/05 11:18:33;;;;;;;11.45;6.00;;;;;;;-0.17;75.33;96841.63;7347976;19;20017;-77
2023/03/05 11:21:08;;;;;;;10.07;5.63;;;;;;;0.00;75.56;96849.09;7348970;19;20014;-77
2023/03/05 11:23:33;;;;;;;10.27;5.53;;;;;;;0.06;75.28;96843.38;7349360;19;20341;-69
2023/03/05 11:26:17;;;;;;;12.80;6.28;;;;;;;0.20;75.21;96853.69;7347156;19;20015;-70
2023/03/05 11:28:51;;;;;;;8.55;5.22;;;;;;;0.28;74.72;96855.72;7350134;19;20011;-68
2023/03/05 11:31:15;;;;;;;9.63;6.20;;;;;;;0.19;74.31;96869.50;7347021;19;20019;-70
2023/03/05 11:33:53;;;;;;;9.00;5.85;;;;;;;0.27;74.08;96870.59;7345854;19;20018;-71
2023/03/05 11:36:33;;;;;;;6.50;5.07;;;;;;;0.19;73.75;96872.97;7349125;19;20023;-73